Time;durP1;ratioP1;P1;durP2;ratioP2;P2;SDS_P1;SDS_P2;PMS_P1;PMS_P2;Temp;Humidity;BMP_temperature;BMP_pressure;BME280_temperature;BME280_humidity;BME280_pressure;Samples;Min_cycle;Max_cycle;Signal;HPM_P1;HPM_P2
2022/04/20 00:00:01;;;;;;;0.28;0.10;;;20.10;99.90;;;;;;5023906;28;20024;-68
2022/04/20 00:02:28;;;;;;;1.17;0.13;;;20.30;99.90;;;;;;5022337;28;20037;-68
2022/04/20 00:04:56;;;;;;;0.10;0.00;;;20.30;99.90;;;;;;5026198;28;20029;-68
2022/04/20 00:07:24;;;;;;;1.10;0.30;;;20.50;99.90;;;;;;5024885;28;20413;-68
2022/04/20 00:10:00;;;;;;;0.00;0.00;;;20.40;99.90;;;;;;5021708;28;20030;-68
2022/04/20 00:12:28;;;;;;;0.20;0.00;;;20.50;99.90;;;;;;5028261;28;20029;-68
2022/04/20 00:14:56;;;;;;;1.35;0.10;;;20.40;99.90;;;;;;5022435;28;20038;-68
2022/04/20 00:17:23;;;;;;;0.73;0.05;;;20.40;99.90;;;;;;5023258;28;20029;-68
2022/04/20 00:19:51;;;;;;;1.55;0.20;;;20.60;99.90;;;;;;5027752;28;20029;-68
2022/04/20 00:22:19;;;;;;;0.60;0.10;;;20.90;99.90;;;;;;5019482;28;20025;-68
2022/04/20 00:24:49;;;;;;;0.22;0.08;;;20.80;99.90;;;;;;5026561;28;20520;-68
2022/04/20 00:27:17;;;;;;;1.00;0.10;;;20.70;99.90;;;;;;5025126;28;20478;-68
2022/04/20 00:29:44;;;;;;;1.00;0.10;;;20.70;99.90;;;;;;5034383;28;20445;-68
2022/04/20 00:32:12;;;;;;;1.33;0.10;;;21.20;99.90;;;;;;5033045;28;20036;-68
2022/04/20 00:34:39;;;;;;;0.30;0.10;;;21.20;99.90;;;;;;5025584;28;20477;-68
2022/04/20 00:37:07;;;;;;;2.65;0.10;;;20.90;99.90;;;;;;5029425;28;20051;-68
2022/04/20 00:39:42;;;;;;;0.10;0.00;;;21.10;99.90;;;;;;5025089;28;20017;-68
2022/04/20 00:42:12;;;;;;;0.28;0.10;;;21.30;99.90;;;;;;5027850;28;20037;-68
2022/04/20 00:44:43;;;;;;;0.63;0.10;;;21.20;99.90;;;;;;5022778;28;20025;-68
2022/04/20 00:47:11;;;;;;;0.10;0.00;;;21.30;99.90;;;;;;5025089;28;20030;-68
2022/04/20 00:49:40;;;;;;;1.70;0.50;;;21.00;99.90;;;;;;5039386;28;20096;-68
2022/04/20 00:52:08;;;;;;;0.30;0.22;;;21.10;99.90;;;;;;5029593;28;20032;-68
2022/04/20 00:54:35;;;;;;;0.10;0.00;;;21.70;99.90;;;;;;5027688;28;20021;-68
2022/04/20 00:57:03;;;;;;;0.10;0.10;;;21.30;99.90;;;;;;5028334;28;20026;-68
2022/04/20 00:59:33;;;;;;;0.20;0.00;;;21.60;99.90;;;;;;5026312;28;20029;-70
2022/04/20 01:02:00;;;;;;;4.65;0.28;;;21.70;99.90;;;;;;5030195;28;20079;-67
2022/04/20 01:04:28;;;;;;;0.10;0.08;;;21.90;99.90;;;;;;5030160;28;20026;-68
2022/04/20 01:06:59;;;;;;;0.20;0.10;;;22.10;99.90;;;;;;5022795;28;20038;-67
2022/04/20 01:09:26;;;;;;;0.65;0.10;;;22.00;99.90;;;;;;5032694;28;20030;-68
2022/04/20 01:11:56;;;;;;;0.77;0.00;;;22.20;99.90;;;;;;5031637;28;20156;-68
2022/04/20 01:14:26;;;;;;;0.30;0.10;;;22.10;99.90;;;;;;5039313;28;20092;-68
2022/04/20 01:16:54;;;;;;;0.10;0.00;;;22.00;99.90;;;;;;5036859;28;20053;-66
2022/04/20 01:19:34;;;;;;;0.93;0.00;;;22.10;99.90;;;;;;5024437;28;20112;-68
2022/04/20 01:22:05;;;;;;;0.22;0.10;;;22.20;99.90;;;;;;5027258;28;20044;-68
2022/04/20 01:24:34;;;;;;;0.25;0.00;;;22.50;99.90;;;;;;5028095;28;20064;-68
2022/04/20 01:27:03;;;;;;;0.55;0.00;;;22.60;99.90;;;;;;5032995;28;20042;-68
2022/04/20 01:29:36;;;;;;;2.15;0.10;;;22.60;99.90;;;;;;5036739;28;20389;-68
2022/04/20 01:32:04;;;;;;;0.60;0.10;;;22.50;99.90;;;;;;5028502;28;20349;-68
2022/04/20 01:34:33;;;;;;;0.30;0.10;;;22.30;99.90;;;;;;5030961;28;20038;-68
2022/04/20 01:37:00;;;;;;;0.38;0.05;;;22.40;99.90;;;;;;5030207;28;20037;-66
2022/04/20 01:39:28;;;;;;;0.17;0.10;;;22.50;99.90;;;;;;5034730;28;20493;-68
2022/04/20 01:41:55;;;;;;;0.45;0.10;;;22.50;99.90;;;;;;5034193;28;20036;-68
2022/04/20 01:44:23;;;;;;;0.50;0.05;;;22.40;99.90;;;;;;5035227;28;20056;-66
2022/04/20 01:46:50;;;;;;;0.85;0.00;;;22.40;99.90;;;;;;5028261;28;20548;-68
2022/04/20 01:49:18;;;;;;;0.15;0.00;;;22.70;99.90;;;;;;5039607;28;20059;-68
2022/04/20 01:51:50;;;;;;;0.15;0.00;;;23.10;99.90;;;;;;5033602;28;20026;-68
2022/04/20 01:54:21;;;;;;;1.63;0.40;;;23.40;99.90;;;;;;5034724;28;20047;-68
2022/04/20 01:56:50;;;;;;;0.20;0.00;;;22.90;99.90;;;;;;5031671;28;20034;-68
2022/04/20 01:59:17;;;;;;;0.20;0.00;;;23.10;99.90;;;;;;5028490;28;20478;-68
2022/04/20 02:04:30;;;;;;;0.50;0.20;;;22.90;99.90;;;;;;5021085;28;20045;-68
2022/04/20 02:06:58;;;;;;;1.55;0.15;;;23.20;99.90;;;;;;5019661;28;20398;-68
2022/04/20 02:09:25;;;;;;;0.95;0.30;;;23.00;99.90;;;;;;5023341;28;20037;-67
2022/04/20 02:11:53;;;;;;;0.28;0.08;;;23.20;99.90;;;;;;5029163;28;20371;-66
2022/04/20 02:14:20;;;;;;;0.47;0.05;;;23.30;99.90;;;;;;5032440;28;20033;-68
2022/04/20 02:16:47;;;;;;;0.22;0.00;;;23.50;99.90;;;;;;5028111;28;20033;-66
2022/04/20 02:19:15;;;;;;;2.08;0.10;;;23.60;99.90;;;;;;5037918;28;20025;-66
2022/04/20 02:21:42;;;;;;;1.17;0.10;;;23.60;99.90;;;;;;5024967;28;20099;-66
2022/04/20 02:24:14;;;;;;;0.13;0.00;;;23.30;99.90;;;;;;5035617;28;20037;-66
2022/04/20 02:26:42;;;;;;;0.10;0.10;;;23.30;99.90;;;;;;5015814;28;20488;-66
2022/04/20 02:29:09;;;;;;;0.95;0.30;;;23.40;99.90;;;;;;5027326;28;20041;-66
2022/04/20 02:31:37;;;;;;;0.93;0.20;;;23.50;99.90;;;;;;5031625;28;20412;-66
2022/04/20 02:34:04;;;;;;;0.57;0.10;;;24.00;99.90;;;;;;5031821;28;20402;-66
2022/04/20 02:36:32;;;;;;;0.10;0.03;;;23.70;99.90;;;;;;5031202;28;20168;-67
2022/04/20 02:39:03;;;;;;;0.17;0.00;;;23.50;99.90;;;;;;5023540;28;20037;-66
2022/04/20 02:41:32;;;;;;;0.65;0.20;;;23.60;99.90;;;;;;5023712;28;20033;-68
2022/04/20 02:44:00;;;;;;;2.03;0.10;;;23.80;99.90;;;;;;5026368;28;20076;-68
2022/04/20 02:46:27;;;;;;;0.05;0.00;;;23.80;99.90;;;;;;5021687;28;20048;-68
2022/04/20 02:48:55;;;;;;;1.17;0.10;;;23.40;99.90;;;;;;5033099;28;20119;-68
2022/04/20 02:51:22;;;;;;;0.30;0.08;;;23.70;99.90;;;;;;5028129;28;20128;-66
2022/04/20 02:53:52;;;;;;;1.45;0.10;;;23.50;99.90;;;;;;5031550;28;20017;-65
2022/04/20 02:56:20;;;;;;;0.30;0.03;;;23.60;99.90;;;;;;5026112;28;20022;-66
2022/04/20 02:58:47;;;;;;;0.10;0.00;;;23.70;99.90;;;;;;5029174;28;20037;-66
2022/04/20 03:01:14;;;;;;;0.25;0.10;;;24.10;99.90;;;;;;5036938;28;20077;-68
2022/04/20 03:03:42;;;;;;;0.32;0.13;;;24.00;99.90;;;;;;5024845;28;20091;-66
2022/04/20 03:06:10;;;;;;;0.63;0.00;;;23.80;99.90;;;;;;5032092;28;20120;-68
2022/04/20 03:08:38;;;;;;;0.40;0.00;;;23.60;99.90;;;;;;5022559;28;20026;-68
2022/04/20 03:11:05;;;;;;;1.20;0.03;;;23.50;99.90;;;;;;5032025;28;20458;-69
2022/04/20 03:13:32;;;;;;;0.20;0.10;;;23.40;99.90;;;;;;5018562;28;20026;-66
2022/04/20 03:16:00;;;;;;;0.10;0.00;;;23.10;99.90;;;;;;5022938;28;20099;-69
2022/04/20 03:18:31;;;;;;;0.10;0.00;;;22.90;99.90;;;;;;5031100;28;20025;-69
2022/04/20 03:21:02;;;;;;;6.63;0.15;;;23.30;99.90;;;;;;5026975;28;20033;-69
2022/04/20 03:23:30;;;;;;;0.17;0.00;;;23.40;99.90;;;;;;5025676;28;20025;-66
2022/04/20 03:25:57;;;;;;;1.55;0.10;;;23.40;99.90;;;;;;5018926;28;20049;-67
2022/04/20 03:28:25;;;;;;;0.90;0.00;;;23.50;99.90;;;;;;5020065;28;20017;-66
2022/04/20 03:30:52;;;;;;;0.20;0.00;;;23.50;99.90;;;;;;5032753;28;20014;-69
2022/04/20 03:33:20;;;;;;;0.25;0.05;;;23.40;99.90;;;;;;5031911;28;20013;-69
2022/04/20 03:35:47;;;;;;;0.00;0.00;;;23.00;99.90;;;;;;5023639;28;20861;-68
2022/04/20 03:38:15;;;;;;;0.00;0.00;;;23.10;99.90;;;;;;5029369;28;20105;-68
2022/04/20 03:40:42;;;;;;;1.10;0.03;;;23.50;99.90;;;;;;5030090;28;20022;-68
2022/04/20 03:43:10;;;;;;;0.13;0.00;;;23.70;99.90;;;;;;5030675;28;20025;-69
2022/04/20 03:45:37;;;;;;;0.30;0.00;;;23.60;99.90;;;;;;5025002;28;20025;-69
2022/04/20 03:48:05;;;;;;;0.60;0.00;;;23.50;99.90;;;;;;5030066;28;20033;-69
2022/04/20 03:50:32;;;;;;;0.10;0.00;;;23.50;99.90;;;;;;5047404;28;20494;-66
2022/04/20 03:53:00;;;;;;;0.50;0.10;;;23.20;99.90;;;;;;5031646;28;20029;-66
2022/04/20 03:55:27;;;;;;;0.95;0.05;;;22.80;99.90;;;;;;5031555;28;20078;-66
2022/04/20 03:57:55;;;;;;;0.00;0.00;;;22.60;99.90;;;;;;5031644;28;20029;-66
2022/04/20 04:00:24;;;;;;;0.10;0.00;;;22.50;99.90;;;;;;5030135;28;20494;-66
2022/04/20 04:02:51;;;;;;;1.50;0.00;;;22.40;99.90;;;;;;5032704;28;20049;-66
2022/04/20 04:05:18;;;;;;;0.85;0.00;;;22.60;99.90;;;;;;5022891;28;20029;-66
2022/04/20 04:07:45;;;;;;;0.10;0.00;;;22.70;99.90;;;;;;5031939;28;20032;-66
2022/04/20 04:10:13;;;;;;;0.20;0.00;;;23.00;99.90;;;;;;5031699;28;20095;-68
2022/04/20 04:12:40;;;;;;;0.15;0.00;;;23.20;99.90;;;;;;5032955;28;20148;-66
2022/04/20 04:15:09;;;;;;;0.00;0.00;;;23.40;99.90;;;;;;5021209;28;20026;-68
2022/04/20 04:17:36;;;;;;;0.22;0.00;;;23.30;99.90;;;;;;5031036;28;20065;-68
2022/04/20 04:20:05;;;;;;;0.55;0.00;;;23.30;99.90;;;;;;5030085;28;20049;-68
2022/04/20 04:22:32;;;;;;;0.05;0.00;;;23.30;99.80;;;;;;5024778;28;20026;-69
2022/04/20 04:24:59;;;;;;;0.00;0.00;;;23.30;99.10;;;;;;5013770;28;20083;-68
2022/04/20 04:27:27;;;;;;;0.30;0.00;;;23.10;98.60;;;;;;5030786;28;20032;-68
2022/04/20 04:29:54;;;;;;;1.02;0.05;;;23.20;99.20;;;;;;5025568;28;20034;-69
2022/04/20 04:32:21;;;;;;;0.35;0.10;;;23.20;99.00;;;;;;5016646;28;20026;-68
2022/04/20 04:34:48;;;;;;;0.43;0.00;;;23.10;99.20;;;;;;5024408;28;20032;-68
2022/04/20 04:37:16;;;;;;;0.10;0.00;;;23.00;99.10;;;;;;5027604;28;20121;-68
2022/04/20 04:39:44;;;;;;;0.55;0.10;;;23.20;98.80;;;;;;5018528;28;20083;-68
2022/04/20 04:42:11;;;;;;;0.00;0.00;;;23.20;98.90;;;;;;5027494;28;20025;-68
2022/04/20 04:44:38;;;;;;;0.00;0.00;;;23.20;99.20;;;;;;5025178;28;20502;-68
2022/04/20 04:49:51;;;;;;;0.10;0.08;;;23.10;99.90;;;;;;5028066;28;20504;-69
2022/04/20 04:52:18;;;;;;;0.10;0.00;;;23.40;99.40;;;;;;5025823;28;20052;-68
2022/04/20 04:54:46;;;;;;;0.00;0.00;;;23.30;99.00;;;;;;5017303;28;20025;-69
2022/04/20 04:57:13;;;;;;;0.10;0.00;;;23.10;98.70;;;;;;5021264;28;20022;-68
2022/04/20 04:59:42;;;;;;;0.22;0.00;;;23.10;98.40;;;;;;5027257;28;20741;-68
2022/04/20 05:02:10;;;;;;;0.00;0.00;;;23.10;98.40;;;;;;5025345;28;20105;-68
2022/04/20 05:04:42;;;;;;;0.00;0.00;;;23.10;98.60;;;;;;5024978;28;20072;-68
2022/04/20 05:07:09;;;;;;;0.38;0.08;;;23.20;98.00;;;;;;5024511;28;20474;-68
2022/04/20 05:09:37;;;;;;;0.05;0.00;;;23.20;97.70;;;;;;5026421;28;20029;-68
2022/04/20 05:12:05;;;;;;;0.15;0.00;;;23.10;97.40;;;;;;5023923;28;20060;-68
2022/04/20 05:14:35;;;;;;;0.10;0.00;;;23.10;97.40;;;;;;5025146;28;20440;-68
2022/04/20 05:17:02;;;;;;;0.00;0.00;;;23.20;97.20;;;;;;5026396;28;20080;-69
2022/04/20 05:19:30;;;;;;;0.55;0.05;;;23.30;97.90;;;;;;5027113;28;20032;-69
2022/04/20 05:21:57;;;;;;;1.33;0.00;;;23.30;97.60;;;;;;5027508;28;20017;-68
2022/04/20 05:24:25;;;;;;;0.25;0.00;;;23.30;97.50;;;;;;5025163;28;20060;-68
2022/04/20 05:26:52;;;;;;;0.00;0.00;;;23.20;97.30;;;;;;5021486;28;20085;-69
2022/04/20 05:29:19;;;;;;;0.43;0.00;;;23.20;97.10;;;;;;5026359;28;20053;-68
2022/04/20 05:31:51;;;;;;;0.10;0.05;;;23.00;97.30;;;;;;5024464;28;20028;-69
2022/04/20 05:34:19;;;;;;;0.20;0.00;;;23.00;97.60;;;;;;5023148;28;20021;-68
2022/04/20 05:42:18;;;;;;;0.63;0.00;;;22.90;97.60;;;;;;5026621;28;20036;-69
2022/04/20 05:44:49;;;;;;;0.43;0.00;;;22.90;97.60;;;;;;5029069;28;20095;-69
2022/04/20 05:47:16;;;;;;;0.68;0.03;;;22.90;97.40;;;;;;5029326;28;20028;-68
2022/04/20 05:49:43;;;;;;;0.08;0.00;;;22.80;97.50;;;;;;5030588;28;20563;-69
2022/04/20 05:52:11;;;;;;;0.55;0.00;;;22.90;97.60;;;;;;5026911;28;20033;-69
2022/04/20 05:54:38;;;;;;;0.10;0.00;;;23.00;97.60;;;;;;5015864;28;20414;-68
2022/04/20 05:57:06;;;;;;;0.05;0.00;;;22.90;97.50;;;;;;5030852;28;20025;-68
2022/04/20 05:59:33;;;;;;;1.67;0.10;;;22.90;97.60;;;;;;5029185;28;20496;-68
2022/04/20 06:02:00;;;;;;;0.20;0.10;;;22.90;97.70;;;;;;5026773;28;20053;-68
2022/04/20 06:04:29;;;;;;;0.40;0.00;;;22.90;97.60;;;;;;5029231;28;20108;-68
2022/04/20 06:06:56;;;;;;;0.43;0.15;;;22.90;97.50;;;;;;5026997;28;20029;-68
2022/04/20 06:09:26;;;;;;;0.08;0.00;;;23.00;97.90;;;;;;5028061;28;20100;-67
2022/04/20 06:11:54;;;;;;;0.88;0.05;;;22.90;98.00;;;;;;5031868;28;20100;-68
2022/04/20 06:14:22;;;;;;;0.60;0.00;;;22.90;98.00;;;;;;5031366;28;20042;-67
2022/04/20 06:16:49;;;;;;;0.17;0.10;;;22.80;98.30;;;;;;5026895;28;20034;-67
2022/04/20 06:19:17;;;;;;;0.55;0.20;;;22.90;98.00;;;;;;5024790;28;20061;-67
2022/04/20 06:21:44;;;;;;;0.30;0.00;;;22.90;98.10;;;;;;5031443;28;20075;-67
2022/04/20 06:24:11;;;;;;;0.00;0.00;;;22.80;98.20;;;;;;5028109;28;20109;-67
2022/04/20 06:26:39;;;;;;;0.00;0.00;;;22.70;98.20;;;;;;5026927;28;20494;-68
2022/04/20 06:29:06;;;;;;;0.63;0.10;;;22.70;98.10;;;;;;5030850;28;20045;-67
2022/04/20 06:31:35;;;;;;;0.08;0.00;;;22.70;98.50;;;;;;5028394;28;20112;-67
2022/04/20 06:34:02;;;;;;;0.38;0.00;;;22.70;98.50;;;;;;5033970;28;20075;-68
2022/04/20 06:36:29;;;;;;;0.75;0.00;;;22.60;99.40;;;;;;5030138;28;20047;-67
2022/04/20 06:38:57;;;;;;;0.00;0.00;;;22.60;98.20;;;;;;5027915;28;20037;-68
2022/04/20 06:41:24;;;;;;;3.78;0.10;;;22.60;98.50;;;;;;5029008;28;20026;-68
2022/04/20 06:43:52;;;;;;;0.20;0.00;;;22.60;98.30;;;;;;5028215;28;20025;-67
2022/04/20 06:46:19;;;;;;;0.10;0.00;;;22.50;98.30;;;;;;5031298;28;20036;-67
2022/04/20 06:48:47;;;;;;;0.05;0.00;;;22.40;98.40;;;;;;5031199;28;20076;-67
2022/04/20 06:51:14;;;;;;;0.20;0.00;;;22.30;99.30;;;;;;5031188;28;20021;-68
2022/04/20 06:59:11;;;;;;;0.00;0.00;;;22.00;99.90;;;;;;5024539;28;20033;-69
2022/04/20 07:01:39;;;;;;;0.77;0.17;;;21.90;99.20;;;;;;5026634;28;20136;-70
2022/04/20 07:04:07;;;;;;;0.50;0.10;;;22.00;99.10;;;;;;5034133;28;20041;-69
2022/04/20 07:06:35;;;;;;;0.30;0.10;;;22.00;98.70;;;;;;5021248;28;20038;-69
2022/04/20 07:09:02;;;;;;;0.05;0.00;;;22.00;99.00;;;;;;5031383;28;20025;-69
2022/04/20 07:11:29;;;;;;;1.55;0.10;;;22.00;99.00;;;;;;5025470;28;20029;-70
2022/04/20 07:13:57;;;;;;;0.25;0.00;;;22.00;98.90;;;;;;5023019;28;20056;-69
2022/04/20 07:16:25;;;;;;;0.47;0.00;;;21.90;99.10;;;;;;5025529;28;20022;-68
2022/04/20 07:18:52;;;;;;;0.35;0.10;;;21.80;99.40;;;;;;5034261;28;20034;-69
2022/04/20 07:21:19;;;;;;;0.25;0.10;;;21.70;99.30;;;;;;5027507;28;20018;-67
2022/04/20 07:23:46;;;;;;;0.60;0.20;;;21.60;99.10;;;;;;5025524;28;20013;-69
2022/04/20 07:26:14;;;;;;;0.20;0.08;;;21.50;99.90;;;;;;5029697;28;20037;-69
2022/04/20 07:28:41;;;;;;;0.28;0.10;;;21.50;99.90;;;;;;5030472;28;20045;-68
2022/04/20 07:31:08;;;;;;;0.40;0.10;;;21.30;99.90;;;;;;5028474;28;20052;-69
2022/04/20 07:33:36;;;;;;;0.93;0.10;;;21.30;99.90;;;;;;5027537;28;20025;-69
2022/04/20 07:36:03;;;;;;;1.35;0.10;;;21.20;99.90;;;;;;5040940;28;20026;-69
2022/04/20 07:38:30;;;;;;;1.55;0.20;;;21.10;99.90;;;;;;5032552;28;20060;-69
2022/04/20 07:40:57;;;;;;;0.80;0.25;;;21.00;99.90;;;;;;5029365;28;20057;-70
2022/04/20 07:43:25;;;;;;;2.05;0.40;;;21.00;99.90;;;;;;5031716;28;20432;-69
2022/04/20 07:45:52;;;;;;;0.80;0.30;;;20.90;99.80;;;;;;5031243;28;20029;-69
2022/04/20 07:48:19;;;;;;;0.63;0.20;;;20.90;99.90;;;;;;5033462;28;20022;-69
2022/04/20 07:50:47;;;;;;;2.40;0.30;;;20.80;99.90;;;;;;5025126;28;20087;-69
2022/04/20 07:53:14;;;;;;;1.52;0.40;;;20.80;99.40;;;;;;5021344;28;22388;-69
2022/04/20 07:55:46;;;;;;;1.00;0.28;;;20.80;99.90;;;;;;5025965;28;20017;-69
2022/04/20 07:58:14;;;;;;;2.78;0.30;;;20.80;99.80;;;;;;5027931;28;20078;-69
2022/04/20 08:00:41;;;;;;;2.67;0.28;;;20.80;99.20;;;;;;5029747;28;20443;-69
2022/04/20 08:03:16;;;;;;;1.75;0.50;;;20.70;99.30;;;;;;5027287;28;20038;-69
2022/04/20 08:05:48;;;;;;;0.30;0.20;;;20.70;99.90;;;;;;5025587;28;20029;-69
2022/04/20 08:08:16;;;;;;;2.75;0.50;;;20.50;99.90;;;;;;5025897;28;20124;-70
2022/04/20 08:10:44;;;;;;;1.10;0.43;;;20.30;99.90;;;;;;5019237;28;20482;-69
2022/04/20 08:15:56;;;;;;;1.35;0.50;;;20.00;99.90;;;;;;5027056;28;20662;-69
2022/04/20 08:18:24;;;;;;;3.50;0.90;;;19.90;99.90;;;;;;5027157;28;20030;-69
2022/04/20 08:20:51;;;;;;;2.47;1.27;;;20.00;99.90;;;;;;5027193;28;20033;-69
2022/04/20 08:23:19;;;;;;;4.45;3.50;;;20.00;99.90;;;;;;5026285;28;20813;-69
2022/04/20 08:25:47;;;;;;;6.15;3.58;;;20.10;99.90;;;;;;5028353;28;20075;-68
2022/04/20 08:28:15;;;;;;;3.05;1.80;;;20.00;99.90;;;;;;5029926;28;20109;-69
2022/04/20 08:30:42;;;;;;;3.65;1.40;;;19.90;99.90;;;;;;5028884;28;20017;-68
2022/04/20 08:33:09;;;;;;;3.67;1.10;;;19.80;99.90;;;;;;5025658;28;20021;-69
2022/04/20 08:35:38;;;;;;;4.07;1.20;;;19.70;99.90;;;;;;5027106;28;20018;-69
2022/04/20 08:38:06;;;;;;;1.65;0.85;;;19.60;99.90;;;;;;5028671;28;20382;-68
2022/04/20 08:40:34;;;;;;;3.30;1.00;;;19.50;99.90;;;;;;5026165;28;20396;-68
2022/04/20 08:43:03;;;;;;;1.77;1.00;;;19.50;99.90;;;;;;5030814;28;20032;-68
2022/04/20 08:45:37;;;;;;;2.17;0.60;;;19.50;99.90;;;;;;5031819;28;20032;-68
2022/04/20 08:48:05;;;;;;;2.00;0.67;;;19.40;99.90;;;;;;5030377;28;20508;-69
2022/04/20 08:50:33;;;;;;;1.77;0.80;;;19.30;99.90;;;;;;5025218;28;20088;-69
2022/04/20 08:53:00;;;;;;;1.35;0.80;;;19.20;99.90;;;;;;5031430;28;20036;-69
2022/04/20 08:55:28;;;;;;;3.47;1.20;;;19.10;99.90;;;;;;5030577;28;21955;-68
2022/04/20 08:57:56;;;;;;;2.58;1.27;;;19.00;99.90;;;;;;5030399;28;20389;-69
2022/04/20 09:00:27;;;;;;;2.90;0.90;;;18.90;99.90;;;;;;5029051;28;20061;-69
2022/04/20 09:02:56;;;;;;;2.40;1.35;;;18.90;99.90;;;;;;5023099;28;20701;-69
2022/04/20 09:05:25;;;;;;;3.38;1.40;;;18.80;99.90;;;;;;5028687;28;20030;-69
2022/04/20 09:07:52;;;;;;;3.53;1.15;;;18.70;99.90;;;;;;5025203;28;20501;-69
2022/04/20 09:10:20;;;;;;;3.72;2.03;;;18.70;99.90;;;;;;5026709;28;20060;-69
2022/04/20 09:13:01;;;;;;;2.90;1.45;;;18.70;99.90;;;;;;5013167;28;20463;-69
2022/04/20 09:15:31;;;;;;;2.03;1.10;;;18.70;99.90;;;;;;5031194;28;20017;-69
2022/04/20 09:18:02;;;;;;;3.30;1.38;;;18.70;99.90;;;;;;5029864;28;20378;-69
2022/04/20 09:20:32;;;;;;;3.15;1.30;;;18.60;99.90;;;;;;5028165;28;20026;-69
2022/04/20 09:23:12;;;;;;;3.55;1.17;;;18.60;99.90;;;;;;5031265;28;20030;-69
2022/04/20 09:25:41;;;;;;;2.53;1.20;;;18.60;99.90;;;;;;5029101;28;20026;-68
2022/04/20 09:28:09;;;;;;;3.13;0.70;;;18.80;99.90;;;;;;5036301;28;20056;-69
2022/04/20 09:30:42;;;;;;;2.38;0.80;;;19.00;99.90;;;;;;5023581;28;20071;-69
2022/04/20 09:33:10;;;;;;;4.53;1.63;;;19.10;99.90;;;;;;5032804;28;20048;-68
2022/04/20 09:35:53;;;;;;;3.08;1.20;;;19.20;99.90;;;;;;5033019;28;20470;-68
2022/04/20 09:38:22;;;;;;;1.95;1.10;;;19.30;99.90;;;;;;5027704;28;20033;-69
2022/04/20 09:40:50;;;;;;;4.22;2.40;;;19.20;99.90;;;;;;5030725;28;20087;-69
2022/04/20 09:43:19;;;;;;;3.22;0.80;;;19.20;99.60;;;;;;5033660;28;20044;-68
2022/04/20 09:46:04;;;;;;;2.55;0.80;;;19.30;98.70;;;;;;5020876;28;20115;-68
2022/04/20 09:51:21;;;;;;;1.75;0.82;;;19.30;97.70;;;;;;5034915;28;20095;-68
2022/04/20 09:53:49;;;;;;;1.67;0.85;;;19.40;97.20;;;;;;5034874;28;20152;-68
2022/04/20 09:56:23;;;;;;;1.83;0.80;;;19.40;96.80;;;;;;5034180;28;20033;-69
2022/04/20 09:59:02;;;;;;;1.08;0.60;;;19.40;97.40;;;;;;5028574;28;20026;-68
2022/04/20 10:01:34;;;;;;;2.55;0.85;;;19.30;97.20;;;;;;5028020;28;20125;-67
2022/04/20 10:04:06;;;;;;;4.22;0.73;;;19.20;98.00;;;;;;5019260;28;20086;-68
2022/04/20 10:06:34;;;;;;;2.63;1.10;;;19.00;98.00;;;;;;5031773;28;20025;-68
2022/04/20 10:09:01;;;;;;;2.10;0.65;;;18.90;99.60;;;;;;5032594;28;20040;-68
2022/04/20 10:11:29;;;;;;;3.17;0.85;;;18.80;99.00;;;;;;5017678;28;20497;-68
2022/04/20 10:16:54;;;;;;;3.53;1.88;;;18.60;99.90;;;;;;5026723;28;20036;-69
2022/04/20 10:19:27;;;;;;;3.88;1.48;;;18.40;99.90;;;;;;5018572;28;20490;-68
2022/04/20 10:21:56;;;;;;;4.03;2.20;;;18.30;99.90;;;;;;5027740;28;20090;-68
2022/04/20 10:24:34;;;;;;;2.72;1.38;;;18.10;99.90;;;;;;5028173;28;20394;-68
2022/04/20 10:27:10;;;;;;;3.75;0.95;;;18.00;99.90;;;;;;5029497;28;20025;-69
2022/04/20 10:29:55;;;;;;;2.03;0.70;;;17.90;99.90;;;;;;5028016;28;20068;-69
2022/04/20 10:32:41;;;;;;;1.45;0.65;;;17.80;99.90;;;;;;5024986;28;20104;-68
2022/04/20 10:35:08;;;;;;;1.00;0.43;;;17.80;99.90;;;;;;5034581;28;20029;-69
2022/04/20 10:37:36;;;;;;;4.68;0.70;;;17.90;99.20;;;;;;5031512;28;20025;-68
2022/04/20 10:40:19;;;;;;;0.90;0.50;;;18.00;98.80;;;;;;5032790;28;21172;-69
2022/04/20 10:43:24;;;;;;;1.35;0.57;;;18.10;98.50;;;;;;5033178;28;20021;-69
2022/04/20 10:46:08;;;;;;;1.13;0.30;;;18.30;97.80;;;;;;5014416;28;20037;-68
2022/04/20 10:48:48;;;;;;;1.85;0.40;;;18.30;97.70;;;;;;5026203;28;20087;-69
2022/04/20 10:51:17;;;;;;;1.58;0.20;;;18.20;99.90;;;;;;5028979;28;20508;-69
2022/04/20 10:53:48;;;;;;;1.30;0.45;;;18.10;99.90;;;;;;5032522;28;20018;-69
2022/04/20 10:56:17;;;;;;;1.50;0.60;;;18.10;99.90;;;;;;5029397;28;20072;-69
2022/04/20 10:59:08;;;;;;;3.85;0.40;;;18.00;99.90;;;;;;5033378;28;20018;-68
2022/04/20 11:02:03;;;;;;;1.95;0.70;;;17.90;99.90;;;;;;5028661;28;20042;-69
2022/04/20 11:04:34;;;;;;;;;;;17.90;99.90;;;;;;5029891;28;20025;-69
2022/04/20 11:07:06;;;;;;;1.25;0.40;;;17.90;99.90;;;;;;5023232;28;19913;-68
2022/04/20 11:09:46;;;;;;;1.10;0.30;;;17.90;99.10;;;;;;5025115;28;20030;-69
2022/04/20 11:21:05;;;;;;;0.40;0.25;;;18.50;97.10;;;;;;5024242;28;20052;-69
2022/04/20 11:23:59;;;;;;;1.23;0.40;;;18.50;97.50;;;;;;5025152;28;20021;-68
2022/04/20 11:26:52;;;;;;;2.25;0.22;;;18.50;97.50;;;;;;5029098;28;20037;-69
2022/04/20 11:29:25;;;;;;;0.95;0.20;;;18.30;98.70;;;;;;5028004;28;20061;-68
2022/04/20 11:32:03;;;;;;;1.13;0.30;;;18.10;98.30;;;;;;5023372;28;20034;-69
2022/04/20 11:34:35;;;;;;;2.65;0.80;;;18.00;98.70;;;;;;5033856;28;20040;-68
2022/04/20 11:37:06;;;;;;;1.15;0.47;;;17.80;98.60;;;;;;5027254;28;20029;-68
2022/04/20 11:39:34;;;;;;;1.80;0.30;;;17.70;99.20;;;;;;5026669;28;20036;-68
2022/04/20 11:42:03;;;;;;;2.80;0.30;;;17.70;99.90;;;;;;5024545;28;20049;-67
2022/04/20 11:44:32;;;;;;;2.83;0.30;;;17.70;99.50;;;;;;5038451;28;20029;-69
2022/04/20 11:47:10;;;;;;;0.52;0.20;;;17.60;99.90;;;;;;5027961;28;20029;-68
2022/04/20 11:49:49;;;;;;;5.25;0.28;;;17.50;99.90;;;;;;5024406;28;20022;-68
2022/04/20 11:52:19;;;;;;;0.95;0.30;;;17.50;99.40;;;;;;5034000;28;20108;-68
2022/04/20 11:54:47;;;;;;;3.20;0.50;;;17.40;99.60;;;;;;5031004;28;20218;-68
2022/04/20 11:57:16;;;;;;;0.73;0.20;;;17.40;99.90;;;;;;5033317;28;20022;-68
2022/04/20 11:59:45;;;;;;;1.05;0.40;;;17.40;99.60;;;;;;5031139;28;20109;-69
2022/04/20 12:02:14;;;;;;;2.60;0.40;;;17.40;98.90;;;;;;5031161;28;20132;-68
2022/04/20 12:04:42;;;;;;;2.10;0.30;;;17.40;99.50;;;;;;5022488;28;20599;-68
2022/04/20 12:07:10;;;;;;;0.98;0.40;;;17.40;99.90;;;;;;5030621;28;20539;-68
2022/04/20 12:09:40;;;;;;;1.27;0.30;;;17.40;99.60;;;;;;5029564;28;20036;-68
2022/04/20 12:12:13;;;;;;;1.13;0.20;;;17.30;99.90;;;;;;5013560;28;20029;-68
2022/04/20 12:14:41;;;;;;;0.90;0.20;;;17.30;99.70;;;;;;5031555;28;20033;-68
2022/04/20 12:17:11;;;;;;;1.02;0.20;;;17.30;99.70;;;;;;5026868;28;20041;-68
2022/04/20 12:19:41;;;;;;;0.40;0.13;;;17.30;99.50;;;;;;5030990;28;20032;-69
2022/04/20 12:22:11;;;;;;;0.38;0.10;;;17.30;99.10;;;;;;5026934;28;20478;-69
2022/04/20 12:24:39;;;;;;;0.95;0.25;;;17.30;98.80;;;;;;5027449;28;20148;-69
2022/04/20 12:27:17;;;;;;;1.67;0.20;;;17.30;99.10;;;;;;5018199;28;20029;-69
2022/04/20 12:29:52;;;;;;;0.43;0.20;;;17.10;99.00;;;;;;5031519;28;20105;-69
2022/04/20 12:32:30;;;;;;;1.50;0.30;;;17.20;99.00;;;;;;5030576;28;20029;-68
2022/04/20 12:35:01;;;;;;;9.38;0.98;;;17.00;99.10;;;;;;5032720;28;20033;-68
2022/04/20 12:37:30;;;;;;;1.77;0.65;;;17.00;99.30;;;;;;5027767;28;20029;-68
2022/04/20 12:40:18;;;;;;;0.93;0.20;;;17.00;99.40;;;;;;5024637;28;20026;-67
2022/04/20 12:43:05;;;;;;;2.47;0.35;;;17.00;99.30;;;;;;5028765;28;20659;-67
2022/04/20 12:45:36;;;;;;;1.95;0.22;;;17.00;99.50;;;;;;5030022;28;20036;-67
2022/04/20 12:48:10;;;;;;;0.80;0.40;;;16.80;99.50;;;;;;5023867;28;20477;-68
2022/04/20 12:50:43;;;;;;;1.02;0.50;;;16.80;99.80;;;;;;5029311;28;20028;-67
2022/04/20 12:53:10;;;;;;;0.65;0.20;;;16.70;99.60;;;;;;5028704;28;20543;-67
2022/04/20 12:55:40;;;;;;;1.40;0.30;;;16.50;99.90;;;;;;5022608;28;20018;-67
2022/04/20 13:03:48;;;;;;;1.13;0.30;;;16.50;99.90;;;;;;5036567;28;20084;-67
2022/04/20 13:06:16;;;;;;;2.03;0.57;;;16.50;99.90;;;;;;5034287;28;20029;-67
2022/04/20 13:08:46;;;;;;;8.77;4.32;;;16.40;99.90;;;;;;5034637;28;20030;-67
2022/04/20 13:11:14;;;;;;;4.47;2.35;;;16.30;99.90;;;;;;5032157;28;20036;-67
2022/04/20 13:13:42;;;;;;;3.80;1.10;;;16.40;99.90;;;;;;5033521;28;20017;-67
2022/04/20 13:16:10;;;;;;;2.03;0.90;;;16.40;99.90;;;;;;5033064;28;20049;-67
2022/04/20 13:18:39;;;;;;;1.50;0.50;;;16.30;99.90;;;;;;5034798;28;20018;-67
2022/04/20 13:21:09;;;;;;;1.33;0.47;;;16.30;99.90;;;;;;5034257;28;20026;-67
2022/04/20 13:23:37;;;;;;;2.60;0.82;;;16.30;99.90;;;;;;5024621;28;20060;-67
2022/04/20 13:28:51;;;;;;;4.70;0.80;;;16.20;99.90;;;;;;5004153;28;20025;-67
2022/04/20 13:31:19;;;;;;;4.28;0.93;;;16.40;99.90;;;;;;5024903;28;20394;-67
2022/04/20 13:33:46;;;;;;;2.15;0.40;;;16.20;99.90;;;;;;5033901;28;20033;-68
2022/04/20 13:36:14;;;;;;;2.90;0.80;;;16.20;99.90;;;;;;5029291;28;20025;-67
2022/04/20 13:38:41;;;;;;;1.77;0.40;;;16.20;99.90;;;;;;5033914;28;20030;-67
2022/04/20 13:41:08;;;;;;;3.67;0.60;;;16.30;99.90;;;;;;5033305;28;20083;-67